sensor_id;sensor_type;location;lat;lon;timestamp;pressure;altitude;pressure_sealevel;temperature;humidity
6567;BME280;3317;43.994;22.878;2023-01-15T00:01:39;101732.88;;;7.74;78.46
6567;BME280;3317;43.994;22.878;2023-01-15T00:04:06;101732.78;;;7.76;78.65
6567;BME280;3317;43.994;22.878;2023-01-15T00:06:37;101731.91;;;7.75;78.32
6567;BME280;3317;43.994;22.878;2023-01-15T00:09:04;101722.00;;;7.76;78.37
6567;BME280;3317;43.994;22.878;2023-01-15T00:11:31;101731.81;;;7.77;78.28
6567;BME280;3317;43.994;22.878;2023-01-15T00:13:59;101722.97;;;7.75;78.47
6567;BME280;3317;43.994;22.878;2023-01-15T00:16:26;101731.81;;;7.77;78.37
6567;BME280;3317;43.994;22.878;2023-01-15T00:18:56;101727.28;;;7.78;78.34
6567;BME280;3317;43.994;22.878;2023-01-15T00:21:25;101732.69;;;7.78;78.15
6567;BME280;3317;43.994;22.878;2023-01-15T00:23:52;101666.38;;;7.36;78.76
6567;BME280;3317;43.994;22.878;2023-01-15T00:26:36;101726.53;;;7.75;78.11
6567;BME280;3317;43.994;22.878;2023-01-15T00:29:21;101736.34;;;7.77;77.94
6567;BME280;3317;43.994;22.878;2023-01-15T00:31:54;101733.63;;;7.77;77.89
6567;BME280;3317;43.994;22.878;2023-01-15T00:34:25;101724.28;;;7.69;77.50
6567;BME280;3317;43.994;22.878;2023-01-15T00:36:52;101736.34;;;7.77;77.69
6567;BME280;3317;43.994;22.878;2023-01-15T00:39:19;101735.59;;;7.74;77.95
6567;BME280;3317;43.994;22.878;2023-01-15T00:41:48;101733.13;;;7.71;78.23
6567;BME280;3317;43.994;22.878;2023-01-15T00:44:16;101740.13;;;7.74;78.19
6567;BME280;3317;43.994;22.878;2023-01-15T00:46:43;101740.13;;;7.74;78.19
6567;BME280;3317;43.994;22.878;2023-01-15T00:49:10;101745.53;;;7.74;78.26
6567;BME280;3317;43.994;22.878;2023-01-15T00:51:39;101734.00;;;7.72;78.40
6567;BME280;3317;43.994;22.878;2023-01-15T00:54:06;101733.22;;;7.70;78.74
6567;BME280;3317;43.994;22.878;2023-01-15T00:56:33;101732.69;;;7.65;79.36
6567;BME280;3317;43.994;22.878;2023-01-15T00:59:00;101739.06;;;7.64;79.27
6567;BME280;3317;43.994;22.878;2023-01-15T01:01:27;101745.44;;;7.63;79.48
6567;BME280;3317;43.994;22.878;2023-01-15T01:03:54;101731.31;;;7.59;79.74
6567;BME280;3317;43.994;22.878;2023-01-15T01:06:21;101732.28;;;7.58;79.69
6567;BME280;3317;43.994;22.878;2023-01-15T01:08:50;101734.97;;;7.58;79.83
6567;BME280;3317;43.994;22.878;2023-01-15T01:11:20;101724.94;;;7.60;79.63
6567;BME280;3317;43.994;22.878;2023-01-15T01:13:48;101724.09;;;7.59;79.69
6567;BME280;3317;43.994;22.878;2023-01-15T01:16:25;101717.81;;;7.59;79.81
6567;BME280;3317;43.994;22.878;2023-01-15T01:18:55;101716.09;;;7.58;80.08
6567;BME280;3317;43.994;22.878;2023-01-15T01:21:23;101708.22;;;7.55;79.49
6567;BME280;3317;43.994;22.878;2023-01-15T01:23:51;101720.41;;;7.60;79.11
6567;BME280;3317;43.994;22.878;2023-01-15T01:26:18;101722.22;;;7.60;79.15
6567;BME280;3317;43.994;22.878;2023-01-15T01:28:48;101716.84;;;7.60;78.97
6567;BME280;3317;43.994;22.878;2023-01-15T01:31:16;101639.13;;;7.15;79.46
6567;BME280;3317;43.994;22.878;2023-01-15T01:33:43;101712.75;;;7.54;80.08
6567;BME280;3317;43.994;22.878;2023-01-15T01:36:10;101708.66;;;7.49;80.02
6567;BME280;3317;43.994;22.878;2023-01-15T01:38:37;101706.28;;;7.44;80.33
6567;BME280;3317;43.994;22.878;2023-01-15T01:41:05;101696.16;;;7.35;81.00
6567;BME280;3317;43.994;22.878;2023-01-15T01:43:51;101697.47;;;7.29;81.79
6567;BME280;3317;43.994;22.878;2023-01-15T01:46:18;101702.00;;;7.15;81.94
6567;BME280;3317;43.994;22.878;2023-01-15T01:48:46;101699.06;;;7.05;82.61
6567;BME280;3317;43.994;22.878;2023-01-15T01:51:14;101701.44;;;6.97;82.96
6567;BME280;3317;43.994;22.878;2023-01-15T01:53:41;101696.38;;;6.93;83.74
6567;BME280;3317;43.994;22.878;2023-01-15T01:56:10;101696.34;;;6.80;84.06
6567;BME280;3317;43.994;22.878;2023-01-15T01:58:37;101683.97;;;6.77;84.50
6567;BME280;3317;43.994;22.878;2023-01-15T02:01:05;101697.66;;;6.87;84.34
6567;BME280;3317;43.994;22.878;2023-01-15T02:03:34;101689.88;;;6.82;84.86
6567;BME280;3317;43.994;22.878;2023-01-15T02:06:06;101692.94;;;6.90;84.74
6567;BME280;3317;43.994;22.878;2023-01-15T02:08:34;101682.16;;;6.90;84.86
6567;BME280;3317;43.994;22.878;2023-01-15T02:11:05;101690.31;;;6.89;84.74
6567;BME280;3317;43.994;22.878;2023-01-15T02:13:37;101691.84;;;6.93;84.96
6567;BME280;3317;43.994;22.878;2023-01-15T02:16:10;101684.31;;;6.98;84.27
6567;BME280;3317;43.994;22.878;2023-01-15T02:18:45;101674.28;;;7.00;84.42
6567;BME280;3317;43.994;22.878;2023-01-15T02:21:21;101677.72;;;7.02;84.39
6567;BME280;3317;43.994;22.878;2023-01-15T02:24:05;101679.34;;;7.05;84.42
6567;BME280;3317;43.994;22.878;2023-01-15T02:27:09;101683.34;;;7.12;83.59
6567;BME280;3317;43.994;22.878;2023-01-15T02:29:45;101675.47;;;7.09;83.64
6567;BME280;3317;43.994;22.878;2023-01-15T02:32:17;101670.19;;;7.08;83.85
6567;BME280;3317;43.994;22.878;2023-01-15T02:34:49;101671.25;;;7.05;84.11
6567;BME280;3317;43.994;22.878;2023-01-15T02:37:22;101667.59;;;7.06;84.08
6567;BME280;3317;43.994;22.878;2023-01-15T02:39:52;101650.09;;;6.99;84.17
6567;BME280;3317;43.994;22.878;2023-01-15T02:42:22;101657.88;;;7.03;84.40
6567;BME280;3317;43.994;22.878;2023-01-15T02:44:52;101659.59;;;7.04;84.32
6567;BME280;3317;43.994;22.878;2023-01-15T02:47:23;101656.06;;;7.04;84.29
6567;BME280;3317;43.994;22.878;2023-01-15T02:49:52;101656.81;;;7.06;84.31
6567;BME280;3317;43.994;22.878;2023-01-15T02:52:23;101663.91;;;7.07;84.45
6567;BME280;3317;43.994;22.878;2023-01-15T02:54:55;101670.06;;;7.09;84.47
6567;BME280;3317;43.994;22.878;2023-01-15T02:57:28;101649.03;;;7.01;84.59
6567;BME280;3317;43.994;22.878;2023-01-15T02:59:57;101654.97;;;6.94;84.28
6567;BME280;3317;43.994;22.878;2023-01-15T03:02:30;101658.31;;;6.97;84.46
6567;BME280;3317;43.994;22.878;2023-01-15T03:05:02;101660.16;;;6.97;84.95
6567;BME280;3317;43.994;22.878;2023-01-15T03:07:35;101661.25;;;6.94;85.16
6567;BME280;3317;43.994;22.878;2023-01-15T03:10:04;101663.06;;;6.94;84.86
6567;BME280;3317;43.994;22.878;2023-01-15T03:12:40;101666.63;;;6.94;85.40
6567;BME280;3317;43.994;22.878;2023-01-15T03:15:25;101665.34;;;7.00;85.09
6567;BME280;3317;43.994;22.878;2023-01-15T03:18:12;101669.63;;;7.02;85.08
6567;BME280;3317;43.994;22.878;2023-01-15T03:20:43;101666.09;;;7.02;84.92
6567;BME280;3317;43.994;22.878;2023-01-15T03:23:15;101667.69;;;7.04;84.76
6567;BME280;3317;43.994;22.878;2023-01-15T03:25:47;101664.03;;;7.05;84.90
6567;BME280;3317;43.994;22.878;2023-01-15T03:28:20;101666.63;;;7.07;84.42
6567;BME280;3317;43.994;22.878;2023-01-15T03:30:49;101670.06;;;7.09;84.79
6567;BME280;3317;43.994;22.878;2023-01-15T03:33:16;101669.00;;;7.12;84.10
6567;BME280;3317;43.994;22.878;2023-01-15T03:35:46;101654.75;;;7.10;83.57
6567;BME280;3317;43.994;22.878;2023-01-15T03:38:16;101660.69;;;7.15;82.91
6567;BME280;3317;43.994;22.878;2023-01-15T03:40:51;101670.50;;;7.16;83.05
6567;BME280;3317;43.994;22.878;2023-01-15T03:43:25;101671.38;;;7.16;82.73
6567;BME280;3317;43.994;22.878;2023-01-15T03:46:13;101667.69;;;7.17;82.79
6567;BME280;3317;43.994;22.878;2023-01-15T03:48:49;101656.03;;;7.17;82.59
6567;BME280;3317;43.994;22.878;2023-01-15T03:51:20;101655.06;;;7.18;82.42
6567;BME280;3317;43.994;22.878;2023-01-15T03:53:52;101643.75;;;7.13;82.47
6567;BME280;3317;43.994;22.878;2023-01-15T03:56:24;101662.22;;;7.19;82.39
6567;BME280;3317;43.994;22.878;2023-01-15T03:59:00;101663.06;;;7.19;81.98
6567;BME280;3317;43.994;22.878;2023-01-15T04:01:31;101661.25;;;7.20;81.90
6567;BME280;3317;43.994;22.878;2023-01-15T04:04:01;101653.16;;;7.20;81.83
6567;BME280;3317;43.994;22.878;2023-01-15T04:06:29;101656.59;;;7.22;81.83
6567;BME280;3317;43.994;22.878;2023-01-15T04:08:58;101650.44;;;7.20;81.70
6567;BME280;3317;43.994;22.878;2023-01-15T04:11:25;101657.56;;;7.21;81.83
6567;BME280;3317;43.994;22.878;2023-01-15T04:13:52;101656.47;;;7.24;81.80
6567;BME280;3317;43.994;22.878;2023-01-15T04:16:24;101640.97;;;7.14;82.67
6567;BME280;3317;43.994;22.878;2023-01-15T04:18:52;101656.38;;;7.25;82.14
6567;BME280;3317;43.994;22.878;2023-01-15T04:21:19;101660.88;;;7.25;81.83
6567;BME280;3317;43.994;22.878;2023-01-15T04:23:47;101648.59;;;7.21;81.25
6567;BME280;3317;43.994;22.878;2023-01-15T04:26:15;101651.72;;;7.27;81.26
6567;BME280;3317;43.994;22.878;2023-01-15T04:28:42;101663.56;;;7.25;81.33
6567;BME280;3317;43.994;22.878;2023-01-15T04:31:09;101670.72;;;7.26;81.16
6567;BME280;3317;43.994;22.878;2023-01-15T04:33:38;101619.94;;;6.94;81.23
6567;BME280;3317;43.994;22.878;2023-01-15T04:36:05;101674.16;;;7.28;80.64
6567;BME280;3317;43.994;22.878;2023-01-15T04:38:33;101676.13;;;7.26;80.73
6567;BME280;3317;43.994;22.878;2023-01-15T04:41:00;101663.28;;;7.16;80.95
6567;BME280;3317;43.994;22.878;2023-01-15T04:43:45;101677.84;;;7.27;80.71
6567;BME280;3317;43.994;22.878;2023-01-15T04:46:30;101667.06;;;7.27;80.74
6567;BME280;3317;43.994;22.878;2023-01-15T04:48:58;101676.31;;;7.23;80.86
6567;BME280;3317;43.994;22.878;2023-01-15T04:51:25;101681.69;;;7.23;81.42
6567;BME280;3317;43.994;22.878;2023-01-15T04:53:52;101685.28;;;7.23;81.71
6567;BME280;3317;43.994;22.878;2023-01-15T04:56:19;101687.97;;;7.23;81.26
6567;BME280;3317;43.994;22.878;2023-01-15T04:58:46;101684.41;;;7.23;81.54
6567;BME280;3317;43.994;22.878;2023-01-15T05:01:15;101682.69;;;7.22;81.46
6567;BME280;3317;43.994;22.878;2023-01-15T05:03:42;101685.38;;;7.22;81.97
6567;BME280;3317;43.994;22.878;2023-01-15T05:06:10;101682.56;;;7.23;82.40
6567;BME280;3317;43.994;22.878;2023-01-15T05:08:38;101679.75;;;7.25;82.19
6567;BME280;3317;43.994;22.878;2023-01-15T05:11:06;101677.28;;;7.22;82.10
6567;BME280;3317;43.994;22.878;2023-01-15T05:13:33;101682.56;;;7.23;82.42
6567;BME280;3317;43.994;22.878;2023-01-15T05:16:11;101680.97;;;7.21;82.75
6567;BME280;3317;43.994;22.878;2023-01-15T05:18:39;101685.38;;;7.22;82.56
6567;BME280;3317;43.994;22.878;2023-01-15T05:21:08;101679.00;;;7.23;82.66
6567;BME280;3317;43.994;22.878;2023-01-15T05:23:40;101676.31;;;7.23;82.20
6567;BME280;3317;43.994;22.878;2023-01-15T05:26:07;101675.47;;;7.22;82.50
6567;BME280;3317;43.994;22.878;2023-01-15T05:28:33;101679.22;;;7.19;82.83
6567;BME280;3317;43.994;22.878;2023-01-15T05:31:05;101683.78;;;7.19;82.77
6567;BME280;3317;43.994;22.878;2023-01-15T05:33:33;101672.03;;;7.20;82.74
6567;BME280;3317;43.994;22.878;2023-01-15T05:36:01;101670.41;;;7.17;82.95
6567;BME280;3317;43.994;22.878;2023-01-15T05:38:28;101675.03;;;7.15;83.10
6567;BME280;3317;43.994;22.878;2023-01-15T05:40:57;101667.03;;;7.14;83.16
6567;BME280;3317;43.994;22.878;2023-01-15T05:43:24;101674.06;;;7.16;82.98
6567;BME280;3317;43.994;22.878;2023-01-15T05:45:50;101660.69;;;7.15;82.31
6567;BME280;3317;43.994;22.878;2023-01-15T05:48:17;101660.59;;;7.16;82.33
6567;BME280;3317;43.994;22.878;2023-01-15T05:50:44;101663.28;;;7.16;82.85
6567;BME280;3317;43.994;22.878;2023-01-15T05:53:11;101664.03;;;7.18;82.77
6567;BME280;3317;43.994;22.878;2023-01-15T05:55:38;101663.16;;;7.18;82.87
6567;BME280;3317;43.994;22.878;2023-01-15T05:58:06;101666.63;;;7.20;82.94
6567;BME280;3317;43.994;22.878;2023-01-15T06:00:33;101660.47;;;7.18;82.44
6567;BME280;3317;43.994;22.878;2023-01-15T06:03:00;101659.94;;;7.13;82.65
6567;BME280;3317;43.994;22.878;2023-01-15T06:05:27;101659.41;;;7.08;83.11
6567;BME280;3317;43.994;22.878;2023-01-15T06:07:54;101662.19;;;7.06;83.47
6567;BME280;3317;43.994;22.878;2023-01-15T06:10:21;101663.16;;;7.05;83.68
6567;BME280;3317;43.994;22.878;2023-01-15T06:12:48;101662.66;;;7.00;83.52
6567;BME280;3317;43.994;22.878;2023-01-15T06:15:16;101655.94;;;6.93;83.96
6567;BME280;3317;43.994;22.878;2023-01-15T06:17:43;101658.97;;;6.88;84.09
6567;BME280;3317;43.994;22.878;2023-01-15T06:20:11;101657.13;;;6.88;84.27
6567;BME280;3317;43.994;22.878;2023-01-15T06:22:37;101658.88;;;6.89;84.19
6567;BME280;3317;43.994;22.878;2023-01-15T06:25:05;101654.31;;;6.90;84.18
6567;BME280;3317;43.994;22.878;2023-01-15T06:27:32;101654.31;;;6.90;84.54
6567;BME280;3317;43.994;22.878;2023-01-15T06:29:59;101652.59;;;6.89;84.62
6567;BME280;3317;43.994;22.878;2023-01-15T06:32:27;101666.72;;;6.93;84.81
6567;BME280;3317;43.994;22.878;2023-01-15T06:34:54;101665.66;;;6.95;84.46
6567;BME280;3317;43.994;22.878;2023-01-15T06:37:21;101670.94;;;6.97;84.82
6567;BME280;3317;43.994;22.878;2023-01-15T06:39:48;101662.66;;;7.00;84.39
6567;BME280;3317;43.994;22.878;2023-01-15T06:42:15;101653.78;;;6.98;84.54
6567;BME280;3317;43.994;22.878;2023-01-15T06:44:59;101665.44;;;6.98;84.61
6567;BME280;3317;43.994;22.878;2023-01-15T06:47:46;101665.44;;;6.98;84.64
6567;BME280;3317;43.994;22.878;2023-01-15T06:50:13;101662.53;;;7.01;84.61
6567;BME280;3317;43.994;22.878;2023-01-15T06:52:40;101665.88;;;7.05;84.09
6567;BME280;3317;43.994;22.878;2023-01-15T06:55:07;101663.28;;;7.03;83.83
6567;BME280;3317;43.994;22.878;2023-01-15T06:57:37;101664.56;;;6.98;83.67
6567;BME280;3317;43.994;22.878;2023-01-15T07:00:05;101671.38;;;6.90;84.33
6567;BME280;3317;43.994;22.878;2023-01-15T07:02:32;101666.72;;;6.93;84.54
6567;BME280;3317;43.994;22.878;2023-01-15T07:05:01;101669.41;;;6.93;84.57
6567;BME280;3317;43.994;22.878;2023-01-15T07:07:28;101668.34;;;6.95;84.44
6567;BME280;3317;43.994;22.878;2023-01-15T07:09:55;101663.81;;;6.96;83.59
6567;BME280;3317;43.994;22.878;2023-01-15T07:12:22;101674.59;;;6.96;83.66
6567;BME280;3317;43.994;22.878;2023-01-15T07:14:49;101673.63;;;6.97;83.36
6567;BME280;3317;43.994;22.878;2023-01-15T07:17:16;101672.66;;;6.98;83.55
6567;BME280;3317;43.994;22.878;2023-01-15T07:19:43;101670.72;;;7.00;83.53
6567;BME280;3317;43.994;22.878;2023-01-15T07:22:12;101668.44;;;6.94;83.63
6567;BME280;3317;43.994;22.878;2023-01-15T07:24:39;101666.72;;;6.93;84.04
6567;BME280;3317;43.994;22.878;2023-01-15T07:27:06;101670.94;;;6.97;84.34
6567;BME280;3317;43.994;22.878;2023-01-15T07:29:33;101672.66;;;6.98;84.12
6567;BME280;3317;43.994;22.878;2023-01-15T07:31:59;101672.31;;;7.02;83.74
6567;BME280;3317;43.994;22.878;2023-01-15T07:34:26;101664.25;;;7.02;83.58
6567;BME280;3317;43.994;22.878;2023-01-15T07:36:53;101664.03;;;7.05;83.32
6567;BME280;3317;43.994;22.878;2023-01-15T07:39:22;101665.66;;;7.08;83.39
6567;BME280;3317;43.994;22.878;2023-01-15T07:41:48;101661.00;;;7.10;83.25
6567;BME280;3317;43.994;22.878;2023-01-15T07:44:38;101669.97;;;7.11;83.28
6567;BME280;3317;43.994;22.878;2023-01-15T07:47:24;101668.03;;;7.13;83.03
6567;BME280;3317;43.994;22.878;2023-01-15T07:50:10;101661.88;;;7.11;82.92
6567;BME280;3317;43.994;22.878;2023-01-15T07:52:37;101665.09;;;7.16;82.76
6567;BME280;3317;43.994;22.878;2023-01-15T07:55:07;101674.72;;;7.20;82.99
6567;BME280;3317;43.994;22.878;2023-01-15T07:57:35;101661.84;;;7.24;82.52
6567;BME280;3317;43.994;22.878;2023-01-15T08:00:04;101669.84;;;7.25;82.62
6567;BME280;3317;43.994;22.878;2023-01-15T08:02:31;101667.06;;;7.27;82.52
6567;BME280;3317;43.994;22.878;2023-01-15T08:04:58;101667.81;;;7.29;82.34
6567;BME280;3317;43.994;22.878;2023-01-15T08:07:25;101665.84;;;7.31;83.77
6567;BME280;3317;43.994;22.878;2023-01-15T08:09:52;101668.66;;;7.42;84.60
6567;BME280;3317;43.994;22.878;2023-01-15T08:12:20;101662.38;;;7.42;83.74
6567;BME280;3317;43.994;22.878;2023-01-15T08:15:07;101667.91;;;7.40;83.71
6567;BME280;3317;43.994;22.878;2023-01-15T08:17:42;101664.66;;;7.35;83.34
6567;BME280;3317;43.994;22.878;2023-01-15T08:20:11;101669.84;;;7.38;83.49
6567;BME280;3317;43.994;22.878;2023-01-15T08:22:38;101670.59;;;7.40;83.12
6567;BME280;3317;43.994;22.878;2023-01-15T08:25:07;101664.75;;;7.46;82.95
6567;BME280;3317;43.994;22.878;2023-01-15T08:27:36;101656.72;;;7.71;87.24
6567;BME280;3317;43.994;22.878;2023-01-15T08:30:06;101663.63;;;7.99;87.87
6567;BME280;3317;43.994;22.878;2023-01-15T08:32:34;101663.81;;;8.09;87.45
6567;BME280;3317;43.994;22.878;2023-01-15T08:35:01;101663.81;;;8.09;86.58
6567;BME280;3317;43.994;22.878;2023-01-15T08:37:28;101663.19;;;8.06;86.30
6567;BME280;3317;43.994;22.878;2023-01-15T08:39:55;101656.41;;;8.00;85.69
6567;BME280;3317;43.994;22.878;2023-01-15T08:42:21;101654.28;;;7.92;84.58
6567;BME280;3317;43.994;22.878;2023-01-15T08:44:50;101656.84;;;7.94;83.27
6567;BME280;3317;43.994;22.878;2023-01-15T08:47:17;101661.50;;;7.92;83.50
6567;BME280;3317;43.994;22.878;2023-01-15T08:49:45;101659.03;;;7.88;83.12
6567;BME280;3317;43.994;22.878;2023-01-15T08:52:13;101659.25;;;7.85;83.03
6567;BME280;3317;43.994;22.878;2023-01-15T08:54:40;101659.59;;;7.81;82.43
6567;BME280;3317;43.994;22.878;2023-01-15T08:57:07;101656.72;;;7.71;82.27
6567;BME280;3317;43.994;22.878;2023-01-15T08:59:36;101661.16;;;7.59;81.90
6567;BME280;3317;43.994;22.878;2023-01-15T09:02:04;101656.44;;;7.50;82.11
6567;BME280;3317;43.994;22.878;2023-01-15T09:04:31;101660.09;;;7.49;82.14
6567;BME280;3317;43.994;22.878;2023-01-15T09:06:58;101655.34;;;7.52;82.78
6567;BME280;3317;43.994;22.878;2023-01-15T09:09:26;101644.47;;;7.41;82.99
6567;BME280;3317;43.994;22.878;2023-01-15T09:11:53;101637.81;;;7.33;82.61
6567;BME280;3317;43.994;22.878;2023-01-15T09:14:20;101649.13;;;7.39;82.86
6567;BME280;3317;43.994;22.878;2023-01-15T09:16:47;101634.56;;;7.41;83.02
6567;BME280;3317;43.994;22.878;2023-01-15T09:19:15;101632.53;;;7.32;83.30
6567;BME280;3317;43.994;22.878;2023-01-15T09:21:42;101629.19;;;7.28;83.33
6567;BME280;3317;43.994;22.878;2023-01-15T09:24:09;101625.31;;;7.32;83.35
6567;BME280;3317;43.994;22.878;2023-01-15T09:26:38;101623.91;;;7.27;83.27
6567;BME280;3317;43.994;22.878;2023-01-15T09:29:06;101564.75;;;6.99;83.44
6567;BME280;3317;43.994;22.878;2023-01-15T09:31:33;101604.81;;;7.30;84.02
6567;BME280;3317;43.994;22.878;2023-01-15T09:34:00;101605.56;;;7.32;83.54
6567;BME280;3317;43.994;22.878;2023-01-15T09:36:30;101604.69;;;7.31;83.83
6567;BME280;3317;43.994;22.878;2023-01-15T09:38:59;101603.72;;;7.32;83.67
6567;BME280;3317;43.994;22.878;2023-01-15T09:41:32;101587.47;;;7.21;83.57
6567;BME280;3317;43.994;22.878;2023-01-15T09:44:32;101595.00;;;7.29;83.50
6567;BME280;3317;43.994;22.878;2023-01-15T09:47:08;101595.22;;;7.26;84.00
6567;BME280;3317;43.994;22.878;2023-01-15T09:49:50;101589.47;;;7.30;84.17
6567;BME280;3317;43.994;22.878;2023-01-15T09:52:29;101585.47;;;7.36;84.21
6567;BME280;3317;43.994;22.878;2023-01-15T09:55:04;101580.38;;;7.44;83.95
6567;BME280;3317;43.994;22.878;2023-01-15T09:57:35;101576.47;;;7.49;83.67
6567;BME280;3317;43.994;22.878;2023-01-15T10:00:05;101572.59;;;7.53;83.49
6567;BME280;3317;43.994;22.878;2023-01-15T10:02:37;101573.59;;;7.52;83.71
6567;BME280;3317;43.994;22.878;2023-01-15T10:05:08;101567.22;;;7.53;83.07
6567;BME280;3317;43.994;22.878;2023-01-15T10:07:43;101569.66;;;7.56;83.43
6567;BME280;3317;43.994;22.878;2023-01-15T10:10:13;101569.19;;;7.62;83.06
6567;BME280;3317;43.994;22.878;2023-01-15T10:12:42;101554.72;;;7.63;83.06
6567;BME280;3317;43.994;22.878;2023-01-15T10:15:15;101547.84;;;7.59;82.76
6567;BME280;3317;43.994;22.878;2023-01-15T10:17:45;101547.53;;;7.64;82.37
6567;BME280;3317;43.994;22.878;2023-01-15T10:20:14;101543.69;;;7.55;82.07
6567;BME280;3317;43.994;22.878;2023-01-15T10:23:00;101544.13;;;7.49;82.16
6567;BME280;3317;43.994;22.878;2023-01-15T10:25:37;101525.72;;;7.42;82.27
6567;BME280;3317;43.994;22.878;2023-01-15T10:28:14;101538.63;;;7.50;82.46
6567;BME280;3317;43.994;22.878;2023-01-15T10:30:47;101530.81;;;7.58;82.36
6567;BME280;3317;43.994;22.878;2023-01-15T10:33:43;101526.56;;;7.67;82.55
6567;BME280;3317;43.994;22.878;2023-01-15T10:36:16;101532.38;;;7.74;81.99
6567;BME280;3317;43.994;22.878;2023-01-15T10:38:54;101523.16;;;7.77;82.10
6567;BME280;3317;43.994;22.878;2023-01-15T10:41:37;101522.38;;;7.87;81.90
6567;BME280;3317;43.994;22.878;2023-01-15T10:44:12;101515.34;;;7.85;81.41
6567;BME280;3317;43.994;22.878;2023-01-15T10:46:48;101519.19;;;7.94;81.55
6567;BME280;3317;43.994;22.878;2023-01-15T10:49:17;101517.47;;;7.93;81.26
6567;BME280;3317;43.994;22.878;2023-01-15T10:51:46;101507.16;;;7.86;81.32
6567;BME280;3317;43.994;22.878;2023-01-15T10:54:22;101496.69;;;7.82;81.08
6567;BME280;3317;43.994;22.878;2023-01-15T10:56:57;101499.50;;;7.80;80.89
6567;BME280;3317;43.994;22.878;2023-01-15T10:59:35;101496.69;;;7.82;81.47
6567;BME280;3317;43.994;22.878;2023-01-15T11:02:17;101494.16;;;7.92;81.40
6567;BME280;3317;43.994;22.878;2023-01-15T11:04:46;101478.81;;;7.92;81.43
6567;BME280;3317;43.994;22.878;2023-01-15T11:07:13;101488.38;;;7.85;81.45
6567;BME280;3317;43.994;22.878;2023-01-15T11:09:43;101480.97;;;7.75;81.08
6567;BME280;3317;43.994;22.878;2023-01-15T11:12:19;101488.31;;;7.73;81.22
6567;BME280;3317;43.994;22.878;2023-01-15T11:15:17;101472.13;;;7.73;81.24
6567;BME280;3317;43.994;22.878;2023-01-15T11:18:11;101464.66;;;7.77;81.23
6567;BME280;3317;43.994;22.878;2023-01-15T11:20:57;101464.31;;;7.82;81.17
6567;BME280;3317;43.994;22.878;2023-01-15T11:23:25;101464.56;;;7.79;81.25
6567;BME280;3317;43.994;22.878;2023-01-15T11:25:55;101463.94;;;7.75;80.88
6567;BME280;3317;43.994;22.878;2023-01-15T11:28:31;101456.28;;;7.69;80.98
6567;BME280;3317;43.994;22.878;2023-01-15T11:30:59;101449.22;;;7.79;80.52
6567;BME280;3317;43.994;22.878;2023-01-15T11:33:28;101448.41;;;7.90;80.91
6567;BME280;3317;43.994;22.878;2023-01-15T11:36:01;101452.19;;;7.87;80.88
6567;BME280;3317;43.994;22.878;2023-01-15T11:38:30;101444.72;;;7.91;80.63
6567;BME280;3317;43.994;22.878;2023-01-15T11:41:00;101391.78;;;7.66;80.25
6567;BME280;3317;43.994;22.878;2023-01-15T11:43:30;101438.84;;;7.97;80.06
6567;BME280;3317;43.994;22.878;2023-01-15T11:46:26;101438.59;;;8.00;80.17
6567;BME280;3317;43.994;22.878;2023-01-15T11:49:10;101432.59;;;8.08;79.69
6567;BME280;3317;43.994;22.878;2023-01-15T11:51:56;101435.41;;;8.07;79.58
6567;BME280;3317;43.994;22.878;2023-01-15T11:54:24;101430.63;;;7.99;78.88
6567;BME280;3317;43.994;22.878;2023-01-15T11:56:53;101434.06;;;8.01;78.76
6567;BME280;3317;43.994;22.878;2023-01-15T11:59:21;101427.31;;;7.95;79.08
6567;BME280;3317;43.994;22.878;2023-01-15T12:01:51;101422.53;;;7.99;79.00
6567;BME280;3317;43.994;22.878;2023-01-15T12:04:28;101417.97;;;7.99;78.77
6567;BME280;3317;43.994;22.878;2023-01-15T12:06:56;101417.88;;;8.12;78.58
6567;BME280;3317;43.994;22.878;2023-01-15T12:12:24;101411.75;;;8.10;78.72
6567;BME280;3317;43.994;22.878;2023-01-15T12:18:17;101398.47;;;8.18;78.01
6567;BME280;3317;43.994;22.878;2023-01-15T12:20:56;101400.81;;;8.23;77.91
6567;BME280;3317;43.994;22.878;2023-01-15T12:23:50;101407.94;;;8.36;77.35
6567;BME280;3317;43.994;22.878;2023-01-15T12:26:24;101403.28;;;8.38;77.59
6567;BME280;3317;43.994;22.878;2023-01-15T12:28:59;101399.59;;;8.39;77.19
6567;BME280;3317;43.994;22.878;2023-01-15T12:31:32;101399.59;;;8.39;77.03
6567;BME280;3317;43.994;22.878;2023-01-15T12:34:07;101398.25;;;8.44;76.81
6567;BME280;3317;43.994;22.878;2023-01-15T12:36:43;101390.03;;;8.46;76.56
6567;BME280;3317;43.994;22.878;2023-01-15T12:39:16;101392.59;;;8.48;76.28
6567;BME280;3317;43.994;22.878;2023-01-15T12:41:50;101375.53;;;8.47;75.97
6567;BME280;3317;43.994;22.878;2023-01-15T12:44:43;101392.72;;;8.46;75.40
6567;BME280;3317;43.994;22.878;2023-01-15T12:47:31;101385.09;;;8.40;75.31
6567;BME280;3317;43.994;22.878;2023-01-15T12:50:05;101391.00;;;8.45;75.63
6567;BME280;3317;43.994;22.878;2023-01-15T12:52:39;101383.16;;;8.53;75.50
6567;BME280;3317;43.994;22.878;2023-01-15T12:55:13;101367.44;;;8.47;75.43
6567;BME280;3317;43.994;22.878;2023-01-15T12:57:43;101380.44;;;8.53;75.01
6567;BME280;3317;43.994;22.878;2023-01-15T13:00:17;101378.50;;;8.55;74.95
6567;BME280;3317;43.994;22.878;2023-01-15T13:02:59;101377.03;;;8.51;74.98
6567;BME280;3317;43.994;22.878;2023-01-15T13:05:33;101370.78;;;8.51;75.22
6567;BME280;3317;43.994;22.878;2023-01-15T13:08:08;101351.34;;;8.45;75.12
6567;BME280;3317;43.994;22.878;2023-01-15T13:10:40;101367.69;;;8.55;75.07
6567;BME280;3317;43.994;22.878;2023-01-15T13:13:14;101357.34;;;8.49;74.96
6567;BME280;3317;43.994;22.878;2023-01-15T13:15:48;101368.28;;;8.59;74.18
6567;BME280;3317;43.994;22.878;2023-01-15T13:18:23;101366.19;;;8.40;74.51
6567;BME280;3317;43.994;22.878;2023-01-15T13:20:52;101367.53;;;8.34;75.06
6567;BME280;3317;43.994;22.878;2023-01-15T13:23:31;101317.88;;;7.91;75.02
6567;BME280;3317;43.994;22.878;2023-01-15T13:26:16;101364.25;;;8.19;75.03
6567;BME280;3317;43.994;22.878;2023-01-15T13:28:55;101365.72;;;8.12;75.91
6567;BME280;3317;43.994;22.878;2023-01-15T13:31:40;101340.78;;;8.08;76.16
6567;BME280;3317;43.994;22.878;2023-01-15T13:34:18;101349.78;;;8.09;76.16
6567;BME280;3317;43.994;22.878;2023-01-15T13:36:48;101351.63;;;7.97;76.39
6567;BME280;3317;43.994;22.878;2023-01-15T13:39:17;101353.19;;;7.88;77.36